Fort Wayne, IN (46801)

4:29 AM EST on January 20, 2017 (GMT -0500)
Lincoln Village | | Change Station

Elev 850 ft 41.16 °N, 85.13 °W | Updated 8 seconds ago

Rain
Rain
37.0 °F
Feels Like 37 °F
N
3.0
Wind Variable Wind from ENE

Today
High -- | Low -- °F
--% Chance of Precip.
Yesterday
High -- | Low -- °F
Precip. -- in
Pressure 29.65 in
Visibility 3.0 miles
Clouds Mostly Cloudy 500 ft
Overcast 1900 ft
Windchill 37 °F
Dew Point 36 °F
Humidity 98%
Rainfall 0.51 in
Snow Depth Not available.
8:00 AM 5:42 PM
Last Quarter, 46% visible
METAR KFWA 200854Z 07013KT 3SM RA BR BKN005 OVC019 04/02 A2963 RMK AO2 SLP039 P0013 60048 T00390022 56036
Pressure 29.65 in
Visibility 3.0 miles
Clouds Mostly Cloudy 500 ft
Overcast 1900 ft
Windchill 37 °F
Dew Point 36 °F
Humidity 98%
Rainfall 0.51 in
Snow Depth Not available.
8:00 AM 5:42 PM
Last Quarter, 46% visible
METAR KFWA 200854Z 07013KT 3SM RA BR BKN005 OVC019 04/02 A2963 RMK AO2 SLP039 P0013 60048 T00390022 56036

Get Your Daily Forecast Email!

Thanks for signing up!

Be on the lookout for a verification email in your inbox.

You'll start receiving the daily forecast at 8 AM.

×

10-Day Weather Forecast

Almanac

Astronomy

Jan. 20, 2017 Rise Set
Actual Time
Civil Twilight
Nautical Twilight
Astronomical Twilight
Moon
Length of Visible Light
Length of Day
Tomorrow will be .
, % of the Moon is Illuminated

Today's Extremes

State Highs State Lows

Community

WunderPhotos

Upload Photos

1,962,540 photos uploaded!

WunderBlog® & News

Nearby

Air Quality

  Air Quality AQ Index Pollutant
Not available.

Snow Depth

Station Depth Elevation

Earthquake Activity

City Distance Mag. Time & Date
Minimum magnitude displayed is 2.5.

Coastal Water Temperatures

Place Temperature

Stations

Nearby Weather Stations

Station Location Temp. Windchill Dew Point Humidity Wind Precip. Elev Updated Type
                   

Watches & Warnings

There are currently no watches in effect.